Terminal Aerodrome Forecast
Issued by NWS

Home | Current Version | Previous Version | Text Only | Print | Product List | Glossary On
Versions: 1 2 3 4 5 6 7 8 9 10 11 12 13 14 15 16 17 18 19 20 21
021
FTUS41 KGYX 131736
TAFRKD
TAF
KRKD 131736Z 1318/1418 34012G22KT 1/2SM SN FG OVC006
      TEMPO 1318/1322 1/4SM +SN FG VV003
     FM140000 32012G22KT 2SM -SN BLSN OVC012
     FM140800 31012G20KT 5SM -SHSN BLSN OVC040
     FM141200 31012G20KT P6SM SCT040
      AMD LTD TO CLD VIS AND WIND=

USA.gov is the U.S. government's official web portal to all federal, state and local government web resources and services.